Terminal Aerodrome Forecast
Issued by NWS Birmingham, AL

Home | Current Version | Previous Version | Text Only | Print | Product List | Glossary On
Versions: 1 2 3 4 5 6 7 8 9 10 11 12 13 14 15 16 17 18
000
FTUS44 KBMX 251720
TAFBHM
TAF
KBHM 251720Z 2518/2618 14006KT 6SM SHRA OVC070
     FM252200 17005KT 4SM RA OVC020
     FM261200 03003KT P6SM BKN015=

USA.gov is the U.S. government's official web portal to all federal, state and local government web resources and services.